createdAt,value
2022-12-06T00:01:46.073Z,16.73
2022-12-06T00:04:18.135Z,15.73
2022-12-06T00:06:48.761Z,14.13
2022-12-06T00:09:20.477Z,12.43
2022-12-06T00:11:48.180Z,14.37
2022-12-06T00:14:16.169Z,12.27
2022-12-06T00:16:44.027Z,15.00
2022-12-06T00:19:13.954Z,14.60
2022-12-06T00:21:41.788Z,13.17
2022-12-06T00:24:11.811Z,12.20
2022-12-06T00:26:42.703Z,13.83
2022-12-06T00:29:13.645Z,13.27
2022-12-06T00:31:41.449Z,11.73
2022-12-06T00:34:09.465Z,11.57
2022-12-06T00:36:39.284Z,11.93
2022-12-06T00:39:10.280Z,12.30
2022-12-06T00:41:38.276Z,13.47
2022-12-06T00:44:07.842Z,15.30
2022-12-06T00:46:36.294Z,13.27
2022-12-06T00:49:05.715Z,15.17
2022-12-06T00:51:34.552Z,13.77
2022-12-06T00:54:02.433Z,13.90
2022-12-06T00:56:30.381Z,15.87
2022-12-06T00:58:58.205Z,13.23
2022-12-06T01:01:29.586Z,14.40
2022-12-06T01:03:59.702Z,16.37
2022-12-06T01:06:29.232Z,14.33
2022-12-06T01:08:57.782Z,14.17
2022-12-06T01:11:25.956Z,15.80
2022-12-06T01:13:54.084Z,15.43
2022-12-06T01:16:25.355Z,15.70
2022-12-06T01:18:56.833Z,17.47
2022-12-06T01:21:26.306Z,15.73
2022-12-06T01:23:54.278Z,17.97
2022-12-06T01:26:24.242Z,14.73
2022-12-06T01:28:52.284Z,14.03
2022-12-06T01:31:20.270Z,18.77
2022-12-06T01:33:48.162Z,15.60
2022-12-06T01:36:22.318Z,15.80
2022-12-06T01:38:51.709Z,17.47
2022-12-06T01:41:20.275Z,19.83
2022-12-06T01:43:49.236Z,18.40
2022-12-06T01:46:24.493Z,16.13
2022-12-06T01:48:56.080Z,18.73
2022-12-06T01:51:25.692Z,18.47
2022-12-06T01:53:56.065Z,19.97
2022-12-06T01:56:23.866Z,17.33
2022-12-06T01:58:55.584Z,18.90
2022-12-06T02:01:26.182Z,17.03
2022-12-06T02:03:56.315Z,18.07
2022-12-06T02:06:25.713Z,18.23
2022-12-06T02:08:55.919Z,17.80
2022-12-06T02:11:23.685Z,18.87
2022-12-06T02:13:51.931Z,17.07
2022-12-06T02:16:33.189Z,18.13
2022-12-06T02:19:14.183Z,16.87
2022-12-06T02:21:50.376Z,18.53
2022-12-06T02:24:40.140Z,20.67
2022-12-06T02:27:33.122Z,20.87
2022-12-06T02:30:18.402Z,17.43
2022-12-06T02:32:55.258Z,16.33
2022-12-06T02:35:30.988Z,18.80
2022-12-06T02:38:07.699Z,20.83
2022-12-06T02:40:43.882Z,19.87
2022-12-06T02:43:16.764Z,21.03
2022-12-06T02:45:48.954Z,18.00
2022-12-06T02:48:20.094Z,20.50
2022-12-06T02:50:56.039Z,18.70
2022-12-06T02:53:27.241Z,21.77
2022-12-06T02:55:56.309Z,19.97
2022-12-06T02:58:24.323Z,20.17
2022-12-06T03:00:55.308Z,23.53
2022-12-06T03:03:51.396Z,21.77
2022-12-06T03:06:41.237Z,19.93
2022-12-06T03:09:20.579Z,19.93
2022-12-06T03:11:56.745Z,18.07
2022-12-06T03:14:27.014Z,20.30
2022-12-06T03:17:04.477Z,19.40
2022-12-06T03:19:34.702Z,22.50
2022-12-06T03:22:07.644Z,19.87
2022-12-06T03:24:38.609Z,23.30
2022-12-06T03:27:11.187Z,21.63
2022-12-06T03:29:44.590Z,24.73
2022-12-06T03:32:15.314Z,22.40
2022-12-06T03:34:48.247Z,22.97
2022-12-06T03:37:19.286Z,21.53
2022-12-06T03:39:51.013Z,24.93
2022-12-06T03:42:20.100Z,24.23
2022-12-06T03:44:48.352Z,24.20
2022-12-06T03:47:22.642Z,26.23
2022-12-06T03:49:58.101Z,26.40
2022-12-06T03:52:26.669Z,22.63
2022-12-06T03:54:54.597Z,25.20
2022-12-06T03:57:22.373Z,25.33
2022-12-06T03:59:50.108Z,29.07
2022-12-06T04:02:17.925Z,26.47
2022-12-06T04:04:45.698Z,25.53
2022-12-06T04:07:14.793Z,26.90
2022-12-06T04:09:56.389Z,27.83
2022-12-06T04:12:42.870Z,32.07
2022-12-06T04:15:11.896Z,31.03
2022-12-06T04:17:58.090Z,32.90
2022-12-06T04:20:26.359Z,37.97
2022-12-06T04:23:04.121Z,30.60
2022-12-06T04:25:32.399Z,30.87
2022-12-06T04:28:17.485Z,33.53
2022-12-06T04:31:02.899Z,36.47
2022-12-06T04:33:48.829Z,33.30
2022-12-06T04:36:34.036Z,29.97
2022-12-06T04:39:03.194Z,37.20
2022-12-06T04:41:48.388Z,31.07
2022-12-06T04:44:16.173Z,31.70
2022-12-06T04:46:44.061Z,31.97
2022-12-06T04:49:11.877Z,32.63
2022-12-06T04:51:39.561Z,28.80
2022-12-06T04:54:08.706Z,28.47
2022-12-06T04:56:36.677Z,31.40
2022-12-06T04:59:04.481Z,29.73
2022-12-06T05:01:32.297Z,31.27
2022-12-06T05:04:00.096Z,31.43
2022-12-06T05:06:27.888Z,30.33
2022-12-06T05:08:55.681Z,30.10
2022-12-06T05:11:24.950Z,26.90
2022-12-06T05:13:52.662Z,33.63
2022-12-06T05:16:20.460Z,27.57
2022-12-06T05:18:48.280Z,31.07
2022-12-06T05:21:18.249Z,30.90
2022-12-06T05:23:45.989Z,29.47
2022-12-06T05:26:15.801Z,29.03
2022-12-06T05:28:45.588Z,28.57
2022-12-06T05:31:14.147Z,32.80
2022-12-06T05:33:41.930Z,28.13
2022-12-06T05:36:10.973Z,28.10
2022-12-06T05:38:38.783Z,33.60
2022-12-06T05:41:07.468Z,27.73
2022-12-06T05:43:35.553Z,30.67
2022-12-06T05:46:04.834Z,27.17
2022-12-06T05:48:33.317Z,31.77
2022-12-06T05:51:01.068Z,29.97
2022-12-06T05:53:29.614Z,28.57
2022-12-06T05:55:57.496Z,29.03
2022-12-06T05:58:26.415Z,30.37
2022-12-06T06:00:54.219Z,30.27
2022-12-06T06:03:23.343Z,26.13
2022-12-06T06:05:52.445Z,32.57
2022-12-06T06:08:20.226Z,25.63
2022-12-06T06:10:48.066Z,28.20
2022-12-06T06:13:15.834Z,29.13
2022-12-06T06:15:43.623Z,29.33
2022-12-06T06:18:11.281Z,30.00
2022-12-06T06:20:40.389Z,31.43
2022-12-06T06:23:08.285Z,27.73
2022-12-06T06:25:36.085Z,31.17
2022-12-06T06:28:03.812Z,29.07
2022-12-06T06:30:31.512Z,29.57
2022-12-06T06:32:59.195Z,31.67
2022-12-06T06:35:27.032Z,34.80
2022-12-06T06:37:56.086Z,27.17
2022-12-06T06:40:23.883Z,26.83
2022-12-06T06:42:51.613Z,32.87
2022-12-06T06:45:23.777Z,32.60
2022-12-06T06:47:54.629Z,28.83
2022-12-06T06:50:22.396Z,30.17
2022-12-06T06:52:50.144Z,38.23
2022-12-06T06:55:20.180Z,40.67
2022-12-06T06:57:48.021Z,33.57
2022-12-06T07:00:17.104Z,32.37
2022-12-06T07:02:44.861Z,34.27
2022-12-06T07:05:12.765Z,30.93
2022-12-06T07:07:40.526Z,30.30
2022-12-06T07:10:09.263Z,33.80
2022-12-06T07:12:38.309Z,33.40
2022-12-06T07:15:06.937Z,28.37
2022-12-06T07:17:35.142Z,29.87
2022-12-06T07:20:03.001Z,32.33
2022-12-06T07:22:31.019Z,30.07
2022-12-06T07:24:58.710Z,29.67
2022-12-06T07:27:26.476Z,31.97
2022-12-06T07:29:55.617Z,35.13
2022-12-06T07:32:23.354Z,32.80
2022-12-06T07:34:51.247Z,31.50
2022-12-06T07:37:20.473Z,32.90
2022-12-06T07:39:48.254Z,34.67
2022-12-06T07:42:33.463Z,31.83
2022-12-06T07:45:03.399Z,37.30
2022-12-06T07:47:34.223Z,37.73
2022-12-06T07:50:02.513Z,37.63
2022-12-06T07:52:34.286Z,40.90
2022-12-06T07:55:02.324Z,36.77
2022-12-06T07:57:30.179Z,33.40
2022-12-06T07:59:58.338Z,32.50
2022-12-06T08:02:29.638Z,33.37
2022-12-06T08:04:57.668Z,34.57
2022-12-06T08:07:26.233Z,29.40
2022-12-06T08:09:54.863Z,30.33
2022-12-06T08:12:23.046Z,32.57
2022-12-06T08:14:52.337Z,30.63
2022-12-06T08:17:23.038Z,32.07
2022-12-06T08:19:52.220Z,32.63
2022-12-06T08:22:19.970Z,29.80
2022-12-06T08:24:47.833Z,35.07
2022-12-06T08:27:15.688Z,33.17
2022-12-06T08:29:45.166Z,34.13
2022-12-06T08:32:13.083Z,33.77
2022-12-06T08:34:40.781Z,35.60
2022-12-06T08:37:09.901Z,36.10
2022-12-06T08:39:37.689Z,34.83
2022-12-06T08:42:06.376Z,38.03
2022-12-06T08:44:34.104Z,35.77
2022-12-06T08:47:03.126Z,34.70
2022-12-06T08:49:31.578Z,38.10
2022-12-06T08:52:00.333Z,38.17
2022-12-06T08:54:30.148Z,34.33
2022-12-06T08:56:57.961Z,35.67
2022-12-06T08:59:25.867Z,35.33
2022-12-06T09:01:53.680Z,34.17
2022-12-06T09:04:21.494Z,28.43
2022-12-06T09:06:49.259Z,30.87
2022-12-06T09:09:18.818Z,28.07
2022-12-06T09:11:50.375Z,27.30
2022-12-06T09:14:22.170Z,30.33
2022-12-06T09:16:50.999Z,28.87
2022-12-06T09:19:19.876Z,26.70
2022-12-06T09:21:47.629Z,24.03
2022-12-06T09:24:17.073Z,24.43
2022-12-06T09:26:44.956Z,24.80
2022-12-06T09:29:14.450Z,21.20
2022-12-06T09:31:42.631Z,21.53
2022-12-06T09:34:11.426Z,19.13
2022-12-06T09:36:42.411Z,19.40
2022-12-06T09:39:14.636Z,22.07
2022-12-06T09:42:15.794Z,21.37
2022-12-06T09:45:19.331Z,25.30
2022-12-06T09:48:06.342Z,26.10
2022-12-06T09:50:44.713Z,29.23
2022-12-06T09:53:23.754Z,26.33
2022-12-06T09:56:11.822Z,25.77
2022-12-06T09:58:55.057Z,27.27
2022-12-06T10:01:35.663Z,27.23
2022-12-06T10:04:27.325Z,26.67
2022-12-06T10:07:07.084Z,28.27
2022-12-06T10:09:45.977Z,28.97
2022-12-06T10:12:28.092Z,24.83
2022-12-06T10:15:17.713Z,26.97
2022-12-06T10:18:04.489Z,30.37
2022-12-06T10:20:39.896Z,27.53
2022-12-06T10:23:17.591Z,30.07
2022-12-06T10:25:56.748Z,28.83
2022-12-06T10:28:34.315Z,27.50
2022-12-06T10:31:09.906Z,26.93
2022-12-06T10:33:52.263Z,24.83
2022-12-06T10:36:29.990Z,23.50
2022-12-06T10:39:05.810Z,23.70
2022-12-06T10:41:42.372Z,28.43
2022-12-06T10:44:18.380Z,28.40
2022-12-06T10:47:06.345Z,23.17
2022-12-06T10:49:44.571Z,27.17
2022-12-06T10:52:23.953Z,26.37
2022-12-06T10:55:03.997Z,23.47
2022-12-06T10:57:37.462Z,27.47
2022-12-06T11:00:13.420Z,24.93
2022-12-06T11:02:49.797Z,28.80
2022-12-06T11:05:23.203Z,24.03
2022-12-06T11:07:56.111Z,21.90
2022-12-06T11:10:29.641Z,21.23
2022-12-06T11:13:03.016Z,22.00
2022-12-06T11:15:35.324Z,21.90
2022-12-06T11:18:06.726Z,21.30
2022-12-06T11:20:43.358Z,18.93
2022-12-06T11:23:18.697Z,21.27
2022-12-06T11:26:02.491Z,17.87
2022-12-06T11:28:38.562Z,17.53
2022-12-06T11:31:17.332Z,19.27
2022-12-06T11:33:46.337Z,17.80
2022-12-06T11:36:16.165Z,16.73
2022-12-06T11:38:45.905Z,16.40
2022-12-06T11:41:22.293Z,15.60
2022-12-06T11:43:50.809Z,16.00
2022-12-06T11:46:18.748Z,18.43
2022-12-06T11:48:46.813Z,19.93
2022-12-06T11:51:20.823Z,18.87
2022-12-06T11:54:03.211Z,17.97
2022-12-06T11:56:33.674Z,21.33
2022-12-06T11:59:17.049Z,16.43
2022-12-06T12:01:46.837Z,16.90
2022-12-06T12:04:26.847Z,15.13
2022-12-06T12:06:59.539Z,16.60
2022-12-06T12:09:30.776Z,17.23
2022-12-06T12:12:03.610Z,16.83
2022-12-06T12:14:38.288Z,15.70
2022-12-06T12:17:17.288Z,19.00
2022-12-06T12:19:48.069Z,13.87
2022-12-06T12:22:25.132Z,16.90
2022-12-06T12:27:48.747Z,16.77
2022-12-06T12:30:23.238Z,14.27
2022-12-06T12:32:52.620Z,15.87
2022-12-06T12:35:28.422Z,15.83
2022-12-06T12:38:00.871Z,13.77
2022-12-06T12:40:31.906Z,14.33
2022-12-06T12:43:01.711Z,10.87
2022-12-06T12:45:30.348Z,13.57
2022-12-06T12:48:00.191Z,11.77
2022-12-06T12:50:29.193Z,11.87
2022-12-06T12:52:58.536Z,17.67
2022-12-06T12:55:28.430Z,11.60
2022-12-06T12:57:58.859Z,8.67
2022-12-06T13:00:30.801Z,11.03
2022-12-06T13:03:01.036Z,10.63
2022-12-06T13:05:34.298Z,15.83
2022-12-06T13:08:12.466Z,12.37
2022-12-06T13:10:44.351Z,11.60
2022-12-06T13:13:17.344Z,12.63
2022-12-06T13:15:48.263Z,9.30
2022-12-06T13:18:22.240Z,7.90
2022-12-06T13:20:51.708Z,10.40
2022-12-06T13:23:23.940Z,9.03
2022-12-06T13:25:59.408Z,8.67
2022-12-06T13:28:36.161Z,7.37
2022-12-06T13:31:11.282Z,8.37
2022-12-06T13:33:46.654Z,10.40
2022-12-06T13:36:16.807Z,7.47
2022-12-06T13:38:45.966Z,7.97
2022-12-06T13:41:15.273Z,8.37
2022-12-06T13:43:51.757Z,8.63
2022-12-06T13:46:37.229Z,6.03
2022-12-06T13:49:06.892Z,5.63
2022-12-06T13:51:46.345Z,6.47
2022-12-06T13:54:33.626Z,9.00
2022-12-06T13:57:04.118Z,5.63
2022-12-06T13:59:41.387Z,7.87
2022-12-06T14:02:50.832Z,5.40
2022-12-06T14:06:06.013Z,6.07
2022-12-06T14:08:41.257Z,8.63
2022-12-06T14:11:17.455Z,6.70
2022-12-06T14:13:46.954Z,7.07
2022-12-06T14:16:22.613Z,6.37
2022-12-06T14:18:51.441Z,6.43
2022-12-06T14:21:25.848Z,6.57
2022-12-06T14:23:54.053Z,5.50
2022-12-06T14:26:27.611Z,5.73
2022-12-06T14:28:57.760Z,6.20
2022-12-06T14:31:31.031Z,7.30
2022-12-06T14:33:58.894Z,4.93
2022-12-06T14:36:29.916Z,5.90
2022-12-06T14:39:04.194Z,8.97
2022-12-06T14:41:55.099Z,5.30
2022-12-06T14:44:31.115Z,5.33
2022-12-06T14:46:59.858Z,7.20
2022-12-06T14:49:47.007Z,5.23
2022-12-06T14:52:20.031Z,4.67
2022-12-06T14:54:48.301Z,7.53
2022-12-06T14:57:27.876Z,6.07
2022-12-06T15:00:15.290Z,5.27
2022-12-06T15:03:04.356Z,6.00
2022-12-06T15:05:38.927Z,6.97
2022-12-06T15:08:21.045Z,6.37
2022-12-06T15:10:55.918Z,3.97
2022-12-06T15:13:24.428Z,6.00
2022-12-06T15:16:03.761Z,5.00
2022-12-06T15:18:34.158Z,5.00
2022-12-06T15:21:01.856Z,6.10
2022-12-06T15:23:37.114Z,4.30
2022-12-06T15:26:06.749Z,5.37
2022-12-06T15:28:36.630Z,6.17
2022-12-06T15:31:04.816Z,5.67
2022-12-06T15:33:32.697Z,5.23
2022-12-06T15:36:00.559Z,4.60
2022-12-06T15:38:28.266Z,4.63
2022-12-06T15:40:56.796Z,8.30
2022-12-06T15:43:28.858Z,5.90
2022-12-06T15:46:00.320Z,8.17
2022-12-06T15:48:29.071Z,6.07
2022-12-06T15:50:56.991Z,5.90
2022-12-06T15:53:26.484Z,5.57
2022-12-06T15:55:54.577Z,7.27
2022-12-06T15:58:23.057Z,7.50
2022-12-06T16:00:51.436Z,10.80
2022-12-06T16:03:20.530Z,8.20
2022-12-06T16:05:48.271Z,6.07
2022-12-06T16:08:16.107Z,7.50
2022-12-06T16:11:10.832Z,7.40
2022-12-06T16:13:31.614Z,6.27
2022-12-06T16:15:59.371Z,8.83
2022-12-06T16:18:28.785Z,6.47
2022-12-06T16:20:56.642Z,8.67
2022-12-06T16:24:12.067Z,6.77
2022-12-06T16:26:34.541Z,6.60
2022-12-06T16:29:04.265Z,7.63
2022-12-06T16:31:38.445Z,6.63
2022-12-06T16:34:11.127Z,7.10
2022-12-06T16:36:55.241Z,6.43
2022-12-06T16:39:23.057Z,6.33
2022-12-06T16:41:50.829Z,9.07
2022-12-06T16:44:18.682Z,7.97
2022-12-06T16:46:46.680Z,9.57
2022-12-06T16:52:06.413Z,9.73
2022-12-06T16:54:34.143Z,7.57
2022-12-06T16:57:01.844Z,9.27
2022-12-06T16:59:29.541Z,5.83
2022-12-06T17:01:57.294Z,5.93
2022-12-06T17:04:30.688Z,9.53
2022-12-06T17:06:58.371Z,7.67
2022-12-06T17:09:26.161Z,6.47
2022-12-06T17:12:06.844Z,8.77
2022-12-06T17:14:36.247Z,10.30
2022-12-06T17:17:04.347Z,10.03
2022-12-06T17:19:34.640Z,7.63
2022-12-06T17:22:03.309Z,7.90
2022-12-06T17:24:31.047Z,6.63
2022-12-06T17:26:59.079Z,7.67
2022-12-06T17:29:27.188Z,8.17
2022-12-06T17:31:55.617Z,7.57
2022-12-06T17:34:25.708Z,7.63
2022-12-06T17:36:57.353Z,6.17
2022-12-06T17:39:25.061Z,7.33
2022-12-06T17:42:10.127Z,7.87
2022-12-06T17:44:39.630Z,10.00
2022-12-06T17:47:07.629Z,10.07
2022-12-06T17:49:36.177Z,9.20
2022-12-06T17:52:05.733Z,8.97
2022-12-06T17:54:33.502Z,7.70
2022-12-06T17:57:01.484Z,6.93
2022-12-06T17:59:31.958Z,8.77
2022-12-06T18:02:17.369Z,7.43
2022-12-06T18:04:46.545Z,8.97
2022-12-06T18:07:17.181Z,8.43
2022-12-06T18:09:45.656Z,7.83
2022-12-06T18:12:15.123Z,7.80
2022-12-06T18:14:42.923Z,7.33
2022-12-06T18:17:10.760Z,8.27
2022-12-06T18:19:40.371Z,8.20
2022-12-06T18:22:08.205Z,9.03
2022-12-06T18:24:37.661Z,9.13
2022-12-06T18:27:06.269Z,10.00
2022-12-06T18:29:34.899Z,8.77
2022-12-06T18:32:03.523Z,9.87
2022-12-06T18:34:31.826Z,8.37
2022-12-06T18:36:59.588Z,9.77
2022-12-06T18:39:27.838Z,9.23
2022-12-06T18:41:56.969Z,9.60
2022-12-06T18:44:25.446Z,8.90
2022-12-06T18:46:53.192Z,12.07
2022-12-06T18:49:21.237Z,8.73
2022-12-06T18:51:49.025Z,9.53
2022-12-06T18:54:16.742Z,9.60
2022-12-06T18:56:44.553Z,9.50
2022-12-06T18:59:13.723Z,11.83
2022-12-06T19:01:42.402Z,10.63
2022-12-06T19:04:14.276Z,10.23
2022-12-06T19:06:43.402Z,9.53
2022-12-06T19:09:13.329Z,10.57
2022-12-06T19:11:42.892Z,11.23
2022-12-06T19:14:10.749Z,10.50
2022-12-06T19:16:41.808Z,11.43
2022-12-06T19:19:16.281Z,10.30
2022-12-06T19:21:45.731Z,10.10
2022-12-06T19:24:15.906Z,10.20
2022-12-06T19:26:43.950Z,9.63
2022-12-06T19:29:11.726Z,9.70
2022-12-06T19:31:41.141Z,8.73
2022-12-06T19:34:14.924Z,9.47
2022-12-06T19:36:42.678Z,11.00
2022-12-06T19:39:11.334Z,9.43
2022-12-06T19:41:59.193Z,9.77
2022-12-06T19:44:26.533Z,8.83
2022-12-06T19:46:55.746Z,11.73
2022-12-06T19:49:25.751Z,10.70
2022-12-06T19:51:53.685Z,15.60
2022-12-06T19:54:23.658Z,10.93
2022-12-06T19:56:53.973Z,9.87
2022-12-06T19:59:21.981Z,9.30
2022-12-06T20:01:50.285Z,10.80
2022-12-06T20:04:22.587Z,9.77
2022-12-06T20:06:50.893Z,9.13
2022-12-06T20:09:19.208Z,10.60
2022-12-06T20:12:02.534Z,12.40
2022-12-06T20:14:33.956Z,10.10
2022-12-06T20:17:02.396Z,9.87
2022-12-06T20:19:31.472Z,11.43
2022-12-06T20:21:59.241Z,16.10
2022-12-06T20:24:26.946Z,9.13
2022-12-06T20:26:55.880Z,13.80
2022-12-06T20:29:24.018Z,12.17
2022-12-06T20:31:52.124Z,9.67
2022-12-06T20:34:20.517Z,11.37
2022-12-06T20:36:49.565Z,9.83
2022-12-06T20:39:20.836Z,10.50
2022-12-06T20:41:49.687Z,11.33
2022-12-06T20:44:18.756Z,10.93
2022-12-06T20:46:47.084Z,12.00
2022-12-06T20:49:16.221Z,14.73
2022-12-06T20:51:48.081Z,13.03
2022-12-06T20:54:20.574Z,15.27
2022-12-06T20:56:51.352Z,11.10
2022-12-06T20:59:19.389Z,12.80
2022-12-06T21:01:47.384Z,12.13
2022-12-06T21:04:16.307Z,13.63
2022-12-06T21:06:44.121Z,14.53
2022-12-06T21:09:12.200Z,13.60
2022-12-06T21:11:41.624Z,10.93
2022-12-06T21:14:12.240Z,15.20
2022-12-06T21:16:41.578Z,16.60
2022-12-06T21:19:12.723Z,17.53
2022-12-06T21:21:42.434Z,15.80
2022-12-06T21:24:12.904Z,14.87
2022-12-06T21:26:42.192Z,17.10
2022-12-06T21:29:15.175Z,17.20
2022-12-06T21:31:42.969Z,20.30
2022-12-06T21:34:11.714Z,18.67
2022-12-06T21:36:39.554Z,19.63
2022-12-06T21:39:07.925Z,19.03
2022-12-06T21:41:35.680Z,18.73
2022-12-06T21:44:04.796Z,18.53
2022-12-06T21:46:32.596Z,18.93
2022-12-06T21:49:01.482Z,22.73
2022-12-06T21:51:31.248Z,16.57
2022-12-06T21:53:59.644Z,18.70
2022-12-06T21:56:29.222Z,20.03
2022-12-06T21:58:59.834Z,20.20
2022-12-06T22:01:31.117Z,19.07
2022-12-06T22:04:01.464Z,15.80
2022-12-06T22:06:29.173Z,18.57
2022-12-06T22:08:59.286Z,18.33
2022-12-06T22:11:27.537Z,19.40
2022-12-06T22:13:55.331Z,17.87
2022-12-06T22:16:23.124Z,18.27
2022-12-06T22:18:54.886Z,19.27
2022-12-06T22:21:25.250Z,19.37
2022-12-06T22:23:53.544Z,19.20
2022-12-06T22:26:23.235Z,17.70
2022-12-06T22:28:51.649Z,17.50
2022-12-06T22:31:21.614Z,16.90
2022-12-06T22:33:50.320Z,18.23
2022-12-06T22:36:20.923Z,17.30
2022-12-06T22:38:49.777Z,19.30
2022-12-06T22:41:18.289Z,16.50
2022-12-06T22:43:46.150Z,17.70
2022-12-06T22:46:16.513Z,17.47
2022-12-06T22:48:44.640Z,20.37
2022-12-06T22:51:14.491Z,17.63
2022-12-06T22:53:45.485Z,18.23
2022-12-06T22:56:14.161Z,18.73
2022-12-06T22:58:41.976Z,18.13
2022-12-06T23:01:16.078Z,20.53
2022-12-06T23:03:45.552Z,21.70
2022-12-06T23:06:17.443Z,17.17
2022-12-06T23:08:46.914Z,18.80
2022-12-06T23:11:16.654Z,18.83
2022-12-06T23:13:45.045Z,17.00
2022-12-06T23:16:15.153Z,16.83
2022-12-06T23:18:43.644Z,21.93
2022-12-06T23:21:14.205Z,23.20
2022-12-06T23:23:43.801Z,21.40
2022-12-06T23:26:15.459Z,19.93
2022-12-06T23:28:43.662Z,21.00
2022-12-06T23:31:13.639Z,21.20
2022-12-06T23:33:42.096Z,18.47
2022-12-06T23:36:12.494Z,19.90
2022-12-06T23:38:40.688Z,19.23
2022-12-06T23:41:09.648Z,22.33
2022-12-06T23:43:39.730Z,18.17
2022-12-06T23:46:08.896Z,18.00
2022-12-06T23:48:37.541Z,20.20
2022-12-06T23:51:07.155Z,20.27
2022-12-06T23:53:35.718Z,19.63
2022-12-06T23:56:07.136Z,19.17
2022-12-06T23:58:35.675Z,21.50
